Terminal Aerodrome Forecast
Issued by NWS Sioux Falls, SD

Home | Current Version | Previous Version | Graphics & Text | Print | Product List | Glossary Off
Versions: 1 2 3 4 5 6 7 8 9 10 11 12 13

000
FTUS43 KFSD 241945 AAA
TAFFSD
TAF AMD
KFSD 241945Z 2420/2518 06005KT P6SM SCT035 BKN050
     FM242100 12005KT P6SM SCT060
     FM251000 15009KT P6SM SCT200
     FM251400 16013G21KT P6SM SCT200=

USA.gov is the U.S. government's official web portal to all federal, state and local government web resources and services.